Time;durP1;ratioP1;P1;durP2;ratioP2;P2;SDS_P1;SDS_P2;PMS_P1;PMS_P2;Temp;Humidity;BMP_temperature;BMP_pressure;BME280_temperature;BME280_humidity;BME280_pressure;Samples;Min_cycle;Max_cycle;Signal;HPM_P1;HPM_P2
2021/06/23 00:02:22;;;;;;;7.13;2.57;;;;;;;;;;5008782;28;20453;-63
2021/06/23 00:04:49;;;;;;;5.90;2.20;;;;;;;;;;5007253;28;20492;-62
2021/06/23 00:07:17;;;;;;;3.33;1.67;;;;;;;;;;5005253;28;20466;-63
2021/06/23 00:09:44;;;;;;;4.63;2.00;;;;;;;;;;5010522;28;20454;-62
2021/06/23 00:12:16;;;;;;;3.80;1.90;;;;;;;;;;5009614;28;20530;-62
2021/06/23 00:14:43;;;;;;;3.50;1.90;;;;;;;;;;5008262;28;20475;-63
2021/06/23 00:17:10;;;;;;;5.10;1.77;;;;;;;;;;5013832;28;20541;-62
2021/06/23 00:19:37;;;;;;;4.33;1.67;;;;;;;;;;4977576;28;20973;-63
2021/06/23 00:22:05;;;;;;;6.17;2.40;;;;;;;;;;4985871;28;20493;-63
2021/06/23 00:24:32;;;;;;;4.43;2.10;;;;;;;;;;4993297;28;20488;-63
2021/06/23 00:26:59;;;;;;;4.93;1.80;;;;;;;;;;4992058;28;20457;-63
2021/06/23 00:29:27;;;;;;;3.80;2.20;;;;;;;;;;5002723;28;20581;-63
2021/06/23 00:31:55;;;;;;;4.20;3.33;;;;;;;;;;4993602;28;20451;-63
2021/06/23 00:34:23;;;;;;;5.93;2.00;;;;;;;;;;4989632;28;20462;-63
2021/06/23 00:36:50;;;;;;;7.70;2.30;;;;;;;;;;4980193;28;20985;-63
2021/06/23 00:39:17;;;;;;;5.00;1.90;;;;;;;;;;4974824;28;20459;-62
2021/06/23 00:41:44;;;;;;;4.33;1.97;;;;;;;;;;4986103;28;21005;-62
2021/06/23 00:44:12;;;;;;;2.57;1.57;;;;;;;;;;4993890;28;20791;-62
2021/06/23 00:46:41;;;;;;;4.10;1.40;;;;;;;;;;4999464;28;20461;-62
2021/06/23 00:49:09;;;;;;;4.67;1.73;;;;;;;;;;5013034;28;21216;-62
2021/06/23 00:51:37;;;;;;;3.57;1.80;;;;;;;;;;4999602;28;20457;-62
2021/06/23 00:54:08;;;;;;;3.43;1.87;;;;;;;;;;4993939;28;20454;-63
2021/06/23 00:56:35;;;;;;;5.70;2.10;;;;;;;;;;4992896;28;20447;-62
2021/06/23 00:59:03;;;;;;;5.50;1.90;;;;;;;;;;4981921;28;20820;-62
2021/06/23 01:01:32;;;;;;;4.40;2.23;;;;;;;;;;4992324;28;20489;-62
2021/06/23 01:04:00;;;;;;;4.40;1.87;;;;;;;;;;4993469;28;20454;-63
2021/06/23 01:06:28;;;;;;;3.57;1.63;;;;;;;;;;4990916;28;20471;-62
2021/06/23 01:08:55;;;;;;;5.57;1.93;;;;;;;;;;4993812;28;20788;-62
2021/06/23 01:11:23;;;;;;;2.33;1.57;;;;;;;;;;4994530;28;20442;-62
2021/06/23 01:13:58;;;;;;;3.77;1.80;;;;;;;;;;4978158;28;20451;-62
2021/06/23 01:16:26;;;;;;;4.03;1.67;;;;;;;;;;4981874;28;20484;-62
2021/06/23 01:18:54;;;;;;;3.50;1.40;;;;;;;;;;4993975;28;20450;-62
2021/06/23 01:21:22;;;;;;;3.80;1.90;;;;;;;;;;5012718;28;20479;-62
2021/06/23 01:23:51;;;;;;;8.30;2.27;;;;;;;;;;4993933;28;20451;-63
2021/06/23 01:26:18;;;;;;;9.37;1.97;;;;;;;;;;4986828;28;20487;-63
2021/06/23 01:28:45;;;;;;;3.80;2.07;;;;;;;;;;4978809;28;20965;-62
2021/06/23 01:31:12;;;;;;;4.37;1.80;;;;;;;;;;5009980;28;20450;-63
2021/06/23 01:33:39;;;;;;;5.83;2.00;;;;;;;;;;4979638;28;20457;-62
2021/06/23 01:36:07;;;;;;;5.90;2.03;;;;;;;;;;4981258;28;20504;-63
2021/06/23 01:38:34;;;;;;;3.30;2.00;;;;;;;;;;4998510;28;20969;-62
2021/06/23 01:41:02;;;;;;;4.20;2.10;;;;;;;;;;4993604;28;20485;-63
2021/06/23 01:43:30;;;;;;;4.90;1.87;;;;;;;;;;4988145;28;20450;-62
2021/06/23 01:45:57;;;;;;;6.60;2.40;;;;;;;;;;5006746;28;20508;-63
2021/06/23 01:48:25;;;;;;;3.60;1.80;;;;;;;;;;4998946;28;20462;-63
2021/06/23 01:50:53;;;;;;;6.13;2.30;;;;;;;;;;4993150;28;20451;-63
2021/06/23 01:53:20;;;;;;;4.27;2.10;;;;;;;;;;4992626;28;20451;-63
2021/06/23 01:55:49;;;;;;;3.10;1.70;;;;;;;;;;4992000;28;20540;-63
2021/06/23 01:58:18;;;;;;;4.70;2.07;;;;;;;;;;5001290;28;20976;-64
2021/06/23 02:00:51;;;;;;;5.47;2.63;;;;;;;;;;5002838;28;20478;-64
2021/06/23 02:03:19;;;;;;;6.53;2.10;;;;;;;;;;4995328;28;20961;-64
2021/06/23 02:05:54;;;;;;;3.60;1.93;;;;;;;;;;4977877;28;20489;-64
2021/06/23 02:08:31;;;;;;;3.63;1.87;;;;;;;;;;4990614;28;20442;-63
2021/06/23 02:11:16;;;;;;;4.00;1.80;;;;;;;;;;4994118;28;20451;-62
2021/06/23 02:14:08;;;;;;;5.70;2.43;;;;;;;;;;4966709;28;20534;-62
2021/06/23 02:16:38;;;;;;;7.67;2.43;;;;;;;;;;4980565;28;20458;-63
2021/06/23 02:19:06;;;;;;;5.73;2.60;;;;;;;;;;4990132;28;20461;-63
2021/06/23 02:21:37;;;;;;;4.30;2.27;;;;;;;;;;4996645;28;20485;-63
2021/06/23 02:24:04;;;;;;;4.00;1.80;;;;;;;;;;5011799;28;20454;-63
2021/06/23 02:26:31;;;;;;;5.13;2.20;;;;;;;;;;4995258;28;20468;-63
2021/06/23 02:28:58;;;;;;;6.40;2.13;;;;;;;;;;5011317;28;20453;-62
2021/06/23 02:31:26;;;;;;;6.00;2.17;;;;;;;;;;4983083;28;20453;-63
2021/06/23 02:33:56;;;;;;;3.97;1.97;;;;;;;;;;4972675;28;20538;-62
2021/06/23 02:36:24;;;;;;;5.27;2.37;;;;;;;;;;4988094;28;21020;-63
2021/06/23 02:38:51;;;;;;;6.23;1.97;;;;;;;;;;4991510;28;20446;-63
2021/06/23 02:41:19;;;;;;;6.10;2.67;;;;;;;;;;4977538;28;20486;-63
2021/06/23 02:43:46;;;;;;;4.20;2.60;;;;;;;;;;5003218;28;20829;-63
2021/06/23 02:46:13;;;;;;;5.70;2.40;;;;;;;;;;4979951;28;20580;-62
2021/06/23 02:48:41;;;;;;;6.27;2.27;;;;;;;;;;4994490;28;20457;-63
2021/06/23 02:51:10;;;;;;;4.87;2.30;;;;;;;;;;4980734;28;20458;-63
2021/06/23 02:53:38;;;;;;;4.90;2.00;;;;;;;;;;4999608;28;20457;-63
2021/06/23 02:56:05;;;;;;;6.50;1.80;;;;;;;;;;5013581;28;20469;-63
2021/06/23 02:58:33;;;;;;;3.77;2.13;;;;;;;;;;5015526;28;20453;-63
2021/06/23 03:01:01;;;;;;;5.03;2.17;;;;;;;;;;4998002;28;20454;-63
2021/06/23 03:03:28;;;;;;;5.60;2.53;;;;;;;;;;5004672;28;20457;-63
2021/06/23 03:05:55;;;;;;;5.67;2.30;;;;;;;;;;5014119;28;20484;-63
2021/06/23 03:08:23;;;;;;;5.37;2.40;;;;;;;;;;5002063;28;20462;-64
2021/06/23 03:10:50;;;;;;;2.93;1.70;;;;;;;;;;4997460;28;20462;-63
2021/06/23 03:13:18;;;;;;;6.10;2.30;;;;;;;;;;4985716;28;20984;-63
2021/06/23 03:15:45;;;;;;;5.53;2.20;;;;;;;;;;4981708;28;20478;-62
2021/06/23 03:18:12;;;;;;;6.20;2.30;;;;;;;;;;4987229;28;20981;-62
2021/06/23 03:20:39;;;;;;;9.23;3.20;;;;;;;;;;4974285;28;20465;-63
2021/06/23 03:23:06;;;;;;;7.40;2.70;;;;;;;;;;4992398;28;20479;-62
2021/06/23 03:25:35;;;;;;;11.47;3.70;;;;;;;;;;4994971;28;20482;-62
2021/06/23 03:28:03;;;;;;;7.37;3.23;;;;;;;;;;4989085;28;20447;-62
2021/06/23 03:30:30;;;;;;;6.10;3.00;;;;;;;;;;4976073;28;20451;-63
2021/06/23 03:32:58;;;;;;;9.20;3.10;;;;;;;;;;4988686;28;20452;-63
2021/06/23 03:35:25;;;;;;;6.03;2.60;;;;;;;;;;4985839;28;20475;-63
2021/06/23 03:37:54;;;;;;;5.77;2.50;;;;;;;;;;4986871;28;20460;-63
2021/06/23 03:40:21;;;;;;;6.20;2.63;;;;;;;;;;4995530;28;20449;-62
2021/06/23 03:42:50;;;;;;;9.63;3.43;;;;;;;;;;4985668;28;20498;-63
2021/06/23 03:45:17;;;;;;;5.13;2.67;;;;;;;;;;4988684;28;20478;-64
2021/06/23 03:47:45;;;;;;;4.73;2.40;;;;;;;;;;4994688;28;20541;-63
2021/06/23 03:50:12;;;;;;;8.03;2.50;;;;;;;;;;4999300;28;20457;-64
2021/06/23 03:52:40;;;;;;;5.23;2.90;;;;;;;;;;4999251;28;20465;-64
2021/06/23 03:55:08;;;;;;;3.00;2.37;;;;;;;;;;4995041;28;20513;-64
2021/06/23 03:57:35;;;;;;;6.53;2.60;;;;;;;;;;4981127;28;20482;-64
2021/06/23 04:00:05;;;;;;;7.97;2.80;;;;;;;;;;4988046;28;20454;-63
2021/06/23 04:02:32;;;;;;;4.70;2.10;;;;;;;;;;4988081;28;20510;-63
2021/06/23 04:04:59;;;;;;;4.57;2.10;;;;;;;;;;4994503;28;20997;-63
2021/06/23 04:07:26;;;;;;;4.10;2.40;;;;;;;;;;4984005;28;20463;-63
2021/06/23 04:09:53;;;;;;;3.93;2.03;;;;;;;;;;4987341;28;20451;-63
2021/06/23 04:12:20;;;;;;;5.57;2.20;;;;;;;;;;4984196;28;20459;-63
2021/06/23 04:14:47;;;;;;;5.60;2.33;;;;;;;;;;4975691;28;20475;-63
2021/06/23 04:17:16;;;;;;;4.07;2.47;;;;;;;;;;4994076;28;20453;-63
2021/06/23 04:19:43;;;;;;;5.30;2.63;;;;;;;;;;4998037;28;20546;-64
2021/06/23 04:22:10;;;;;;;5.57;2.97;;;;;;;;;;4993374;28;20474;-63
2021/06/23 04:24:37;;;;;;;6.13;2.33;;;;;;;;;;4994146;28;20993;-63
2021/06/23 04:27:05;;;;;;;6.60;3.53;;;;;;;;;;4993505;28;20487;-62
2021/06/23 04:29:32;;;;;;;5.83;2.53;;;;;;;;;;4988097;28;20462;-62
2021/06/23 04:31:59;;;;;;;6.17;2.40;;;;;;;;;;5002496;28;20447;-62
2021/06/23 04:34:27;;;;;;;5.97;2.67;;;;;;;;;;4995975;28;20470;-63
2021/06/23 04:36:54;;;;;;;4.33;2.57;;;;;;;;;;4992909;28;20458;-63
2021/06/23 04:39:21;;;;;;;5.87;3.17;;;;;;;;;;4994751;28;20451;-64
2021/06/23 04:41:48;;;;;;;4.17;2.20;;;;;;;;;;4992732;28;20487;-62
2021/06/23 04:44:16;;;;;;;5.40;2.97;;;;;;;;;;4986376;28;20454;-64
2021/06/23 04:46:43;;;;;;;4.10;2.57;;;;;;;;;;5001738;28;20826;-63
2021/06/23 04:49:10;;;;;;;5.23;2.20;;;;;;;;;;4979614;28;20457;-66
2021/06/23 04:51:38;;;;;;;4.33;2.53;;;;;;;;;;4993981;28;20454;-63
2021/06/23 04:54:06;;;;;;;4.30;2.60;;;;;;;;;;5002437;28;20461;-63
2021/06/23 04:56:33;;;;;;;3.03;2.13;;;;;;;;;;4992174;28;20448;-63
2021/06/23 04:59:00;;;;;;;7.63;2.83;;;;;;;;;;4992682;28;20459;-63
2021/06/23 05:01:27;;;;;;;8.80;2.80;;;;;;;;;;4990194;28;20455;-63
2021/06/23 05:03:54;;;;;;;6.40;2.83;;;;;;;;;;4983789;28;20458;-63
2021/06/23 05:06:21;;;;;;;5.77;2.70;;;;;;;;;;4992294;28;20668;-62
2021/06/23 05:08:50;;;;;;;4.20;2.50;;;;;;;;;;4994189;28;20949;-62
2021/06/23 05:11:17;;;;;;;5.83;2.33;;;;;;;;;;4993325;28;20466;-62
2021/06/23 05:13:44;;;;;;;4.83;2.20;;;;;;;;;;4995732;28;20975;-62
2021/06/23 05:16:11;;;;;;;3.60;2.20;;;;;;;;;;4992682;28;20504;-63
2021/06/23 05:18:38;;;;;;;4.83;2.77;;;;;;;;;;5001423;28;20466;-64
2021/06/23 05:21:06;;;;;;;7.77;2.27;;;;;;;;;;4999498;28;20458;-63
2021/06/23 05:23:33;;;;;;;4.93;2.57;;;;;;;;;;4992963;28;20493;-64
2021/06/23 05:26:01;;;;;;;4.37;2.20;;;;;;;;;;5041968;22;20494;-65
2021/06/23 05:28:28;;;;;;;5.50;2.40;;;;;;;;;;4988469;28;20644;-66
2021/06/23 05:30:55;;;;;;;6.70;2.50;;;;;;;;;;4989089;28;20451;-65
2021/06/23 05:33:23;;;;;;;5.10;2.50;;;;;;;;;;5006542;28;21170;-66
2021/06/23 05:35:50;;;;;;;4.63;2.40;;;;;;;;;;5012013;28;20477;-65
2021/06/23 05:38:17;;;;;;;5.67;2.50;;;;;;;;;;4998468;28;20459;-65
2021/06/23 05:40:44;;;;;;;5.90;2.57;;;;;;;;;;4992793;28;20454;-65
2021/06/23 05:43:12;;;;;;;6.67;2.70;;;;;;;;;;4992452;28;20482;-65
2021/06/23 05:45:39;;;;;;;4.47;2.30;;;;;;;;;;4992280;28;20466;-65
2021/06/23 05:48:07;;;;;;;6.70;2.50;;;;;;;;;;5001301;28;20454;-66
2021/06/23 05:50:34;;;;;;;5.17;2.90;;;;;;;;;;5012631;28;20453;-66
2021/06/23 05:53:01;;;;;;;4.80;2.87;;;;;;;;;;5011589;28;20525;-65
2021/06/23 05:55:28;;;;;;;4.00;2.47;;;;;;;;;;5011613;28;20473;-66
2021/06/23 05:57:57;;;;;;;6.73;2.73;;;;;;;;;;5011507;28;20460;-65
2021/06/23 06:00:26;;;;;;;6.53;2.33;;;;;;;;;;5012198;28;20537;-65
2021/06/23 06:02:53;;;;;;;4.43;1.77;;;;;;;;;;4995114;28;21001;-65
2021/06/23 06:05:20;;;;;;;5.60;2.13;;;;;;;;;;4991663;28;20480;-65
2021/06/23 06:07:47;;;;;;;4.77;2.40;;;;;;;;;;5005866;28;20464;-65
2021/06/23 06:10:15;;;;;;;5.37;2.70;;;;;;;;;;4998795;28;20826;-66
2021/06/23 06:12:42;;;;;;;5.40;2.90;;;;;;;;;;4985741;28;20455;-64
2021/06/23 06:15:09;;;;;;;4.23;2.40;;;;;;;;;;4997397;28;20478;-64
2021/06/23 06:17:38;;;;;;;4.30;2.27;;;;;;;;;;4991213;28;20454;-65
2021/06/23 06:20:06;;;;;;;5.63;2.50;;;;;;;;;;4992740;28;20446;-66
2021/06/23 06:22:33;;;;;;;5.10;2.60;;;;;;;;;;4990863;28;20493;-67
2021/06/23 06:25:00;;;;;;;4.20;2.27;;;;;;;;;;4994246;28;20474;-66
2021/06/23 06:27:28;;;;;;;4.50;3.17;;;;;;;;;;5009953;28;20456;-67
2021/06/23 06:29:55;;;;;;;4.00;2.43;;;;;;;;;;5006710;28;20457;-68
2021/06/23 06:32:22;;;;;;;8.90;3.00;;;;;;;;;;4992393;28;20442;-65
2021/06/23 06:34:51;;;;;;;8.00;2.90;;;;;;;;;;4988200;28;20819;-67
2021/06/23 06:37:18;;;;;;;13.77;3.07;;;;;;;;;;4990242;28;20464;-65
2021/06/23 06:39:45;;;;;;;7.00;3.27;;;;;;;;;;4996658;28;20449;-65
2021/06/23 06:42:12;;;;;;;7.80;3.20;;;;;;;;;;5011485;28;20446;-65
2021/06/23 06:44:39;;;;;;;11.23;3.30;;;;;;;;;;4994863;28;20456;-65
2021/06/23 06:47:06;;;;;;;5.90;3.37;;;;;;;;;;4991563;28;20455;-64
2021/06/23 06:49:33;;;;;;;8.40;2.93;;;;;;;;;;4991662;28;20537;-65
2021/06/23 06:52:02;;;;;;;6.93;3.60;;;;;;;;;;4991979;28;20813;-65
2021/06/23 06:54:30;;;;;;;7.20;3.23;;;;;;;;;;4991281;28;20461;-64
2021/06/23 06:56:57;;;;;;;5.27;2.80;;;;;;;;;;4989759;28;20485;-65
2021/06/23 06:59:24;;;;;;;6.87;3.60;;;;;;;;;;4991856;28;20823;-64
2021/06/23 07:01:51;;;;;;;4.20;2.93;;;;;;;;;;4991821;28;20463;-65
2021/06/23 07:04:19;;;;;;;4.83;3.40;;;;;;;;;;4991460;28;20478;-66
2021/06/23 07:06:46;;;;;;;7.57;3.30;;;;;;;;;;4990586;28;20481;-65
2021/06/23 07:09:14;;;;;;;4.50;2.57;;;;;;;;;;4991432;28;20482;-62
2021/06/23 07:11:42;;;;;;;17.00;6.33;;;;;;;;;;4997626;28;20453;-64
2021/06/23 07:14:09;;;;;;;12.90;5.00;;;;;;;;;;5011575;28;20452;-64
2021/06/23 07:16:36;;;;;;;15.57;5.13;;;;;;;;;;5010512;28;20465;-66
2021/06/23 07:19:03;;;;;;;12.83;4.33;;;;;;;;;;5011108;28;20952;-65
2021/06/23 07:21:31;;;;;;;12.93;4.40;;;;;;;;;;5011292;28;20442;-66
2021/06/23 07:23:58;;;;;;;8.47;4.47;;;;;;;;;;5004215;28;20569;-66
2021/06/23 07:26:27;;;;;;;9.37;4.43;;;;;;;;;;4990513;28;20482;-66
2021/06/23 07:28:54;;;;;;;7.13;3.00;;;;;;;;;;4991647;28;20453;-65
2021/06/23 07:31:26;;;;;;;6.17;3.20;;;;;;;;;;4991729;28;20482;-66
2021/06/23 07:33:59;;;;;;;5.30;3.10;;;;;;;;;;4988909;28;20454;-65
2021/06/23 07:36:34;;;;;;;7.80;2.83;;;;;;;;;;4994639;28;20585;-65
2021/06/23 07:39:02;;;;;;;4.97;3.00;;;;;;;;;;4995592;28;20430;-65
2021/06/23 07:41:31;;;;;;;10.00;3.20;;;;;;;;;;4990191;28;20524;-65
2021/06/23 07:43:58;;;;;;;5.50;3.10;;;;;;;;;;5008067;28;20465;-65
2021/06/23 07:46:26;;;;;;;4.53;2.60;;;;;;;;;;4994508;28;20532;-65
2021/06/23 07:48:55;;;;;;;5.50;2.60;;;;;;;;;;5015721;28;20483;-66
2021/06/23 07:51:29;;;;;;;5.83;2.33;;;;;;;;;;4996480;28;21020;-65
2021/06/23 07:54:09;;;;;;;7.40;2.73;;;;;;;;;;4994837;28;20636;-65
2021/06/23 07:56:53;;;;;;;5.30;3.00;;;;;;;;;;4998670;28;20477;-68
2021/06/23 08:10:25;;;;;;;4.80;2.37;;;;;;;;;;4994366;28;20497;-69
2021/06/23 08:12:56;;;;;;;3.30;2.37;;;;;;;;;;4994225;28;20906;-67
2021/06/23 08:15:23;;;;;;;4.03;2.50;;;;;;;;;;4993830;28;20466;-66
2021/06/23 08:17:50;;;;;;;3.10;1.97;;;;;;;;;;4994193;28;20821;-69
2021/06/23 08:20:17;;;;;;;3.43;1.70;;;;;;;;;;4994533;28;20454;-68
2021/06/23 08:22:44;;;;;;;5.00;2.47;;;;;;;;;;4994524;28;20490;-69
2021/06/23 08:25:12;;;;;;;4.80;2.17;;;;;;;;;;4994007;28;20489;-69
2021/06/23 08:27:39;;;;;;;5.83;1.80;;;;;;;;;;4994127;28;20439;-69
2021/06/23 08:30:09;;;;;;;3.57;2.37;;;;;;;;;;4994033;28;20973;-69
2021/06/23 08:32:36;;;;;;;2.50;1.83;;;;;;;;;;4993958;28;20452;-69
2021/06/23 08:35:04;;;;;;;3.00;1.70;;;;;;;;;;4993887;28;21028;-68
2021/06/23 08:37:31;;;;;;;4.83;1.70;;;;;;;;;;4993003;28;20457;-68
2021/06/23 08:39:58;;;;;;;2.40;1.73;;;;;;;;;;4994228;28;20450;-69
2021/06/23 08:42:25;;;;;;;3.30;2.00;;;;;;;;;;4994142;28;20451;-68
2021/06/23 08:44:53;;;;;;;5.37;1.90;;;;;;;;;;4993074;28;21017;-69
2021/06/23 08:47:21;;;;;;;2.90;1.87;;;;;;;;;;4992530;28;20956;-68
2021/06/23 08:49:49;;;;;;;3.80;1.90;;;;;;;;;;4992668;28;20451;-68
2021/06/23 08:52:16;;;;;;;6.50;1.60;;;;;;;;;;4993843;28;20836;-68
2021/06/23 08:54:45;;;;;;;5.00;1.70;;;;;;;;;;4993663;28;20453;-68
2021/06/23 08:57:12;;;;;;;3.77;1.77;;;;;;;;;;4993069;28;20930;-68
2021/06/23 08:59:41;;;;;;;3.10;1.73;;;;;;;;;;4993466;28;20461;-68
2021/06/23 09:02:12;;;;;;;3.57;1.80;;;;;;;;;;4994021;28;20455;-67
2021/06/23 09:04:55;;;;;;;2.83;1.60;;;;;;;;;;4993662;28;20490;-68
2021/06/23 09:07:36;;;;;;;2.43;1.93;;;;;;;;;;4993188;28;20453;-67
2021/06/23 09:10:04;;;;;;;2.37;1.87;;;;;;;;;;4993660;28;20434;-69
2021/06/23 09:12:31;;;;;;;3.40;1.73;;;;;;;;;;4993211;28;20961;-68
2021/06/23 09:15:00;;;;;;;3.63;2.10;;;;;;;;;;4993297;28;20473;-69
2021/06/23 09:17:28;;;;;;;3.30;1.80;;;;;;;;;;4992867;28;20930;-68
2021/06/23 09:19:57;;;;;;;2.60;1.70;;;;;;;;;;4993546;28;20490;-68
2021/06/23 09:22:32;;;;;;;3.10;2.00;;;;;;;;;;5002183;28;20447;-69
2021/06/23 09:24:59;;;;;;;2.67;1.97;;;;;;;;;;4993300;28;20493;-68
2021/06/23 09:27:28;;;;;;;3.83;1.70;;;;;;;;;;4991952;28;20807;-66
2021/06/23 09:30:15;;;;;;;2.27;1.70;;;;;;;;;;4993135;28;20451;-66
2021/06/23 09:32:42;;;;;;;3.60;2.07;;;;;;;;;;4993306;28;20457;-67
2021/06/23 09:35:11;;;;;;;3.83;1.70;;;;;;;;;;4992671;28;20470;-67
2021/06/23 09:37:38;;;;;;;2.93;1.80;;;;;;;;;;4992459;28;20453;-67
2021/06/23 09:40:13;;;;;;;3.57;1.87;;;;;;;;;;4993336;28;20509;-67
2021/06/23 09:42:41;;;;;;;3.87;2.23;;;;;;;;;;4993125;28;20522;-67
2021/06/23 09:45:09;;;;;;;2.73;1.60;;;;;;;;;;4993008;28;20486;-67
2021/06/23 09:47:37;;;;;;;4.10;1.97;;;;;;;;;;4992439;28;20453;-67
2021/06/23 09:50:05;;;;;;;2.73;2.13;;;;;;;;;;4992739;28;20466;-68
2021/06/23 09:52:35;;;;;;;4.37;1.93;;;;;;;;;;4992828;28;20447;-67
2021/06/23 09:55:02;;;;;;;1.73;1.50;;;;;;;;;;4992866;28;20513;-67
2021/06/23 09:57:29;;;;;;;3.67;2.40;;;;;;;;;;4991934;28;20543;-66
2021/06/23 10:00:08;;;;;;;3.33;2.23;;;;;;;;;;4992668;28;20481;-67
2021/06/23 10:02:35;;;;;;;3.10;1.80;;;;;;;;;;4992938;28;20477;-67
2021/06/23 10:05:03;;;;;;;2.50;1.50;;;;;;;;;;4992321;28;20490;-67
2021/06/23 10:07:45;;;;;;;2.70;1.80;;;;;;;;;;4992283;28;20450;-67
2021/06/23 10:10:13;;;;;;;2.70;2.00;;;;;;;;;;4992823;28;20494;-66
2021/06/23 10:12:40;;;;;;;3.20;2.10;;;;;;;;;;4992852;28;20456;-66
2021/06/23 10:15:08;;;;;;;4.23;1.80;;;;;;;;;;4992314;28;20844;-66
2021/06/23 10:17:35;;;;;;;4.20;2.40;;;;;;;;;;4991863;28;20454;-67
2021/06/23 10:20:04;;;;;;;2.53;1.70;;;;;;;;;;4992155;28;20466;-66
2021/06/23 10:22:31;;;;;;;2.33;1.80;;;;;;;;;;4992273;28;20457;-67
2021/06/23 10:25:03;;;;;;;2.93;1.97;;;;;;;;;;4991702;28;21163;-67
2021/06/23 10:27:30;;;;;;;2.70;1.60;;;;;;;;;;4991350;28;20445;-66
2021/06/23 10:29:59;;;;;;;2.20;1.60;;;;;;;;;;4992377;28;20451;-67
2021/06/23 10:32:26;;;;;;;3.20;2.00;;;;;;;;;;4992386;28;20446;-66
2021/06/23 10:34:53;;;;;;;3.63;1.97;;;;;;;;;;4992943;28;20467;-67
2021/06/23 10:37:21;;;;;;;4.27;2.00;;;;;;;;;;4991230;28;20829;-67
2021/06/23 10:39:48;;;;;;;1.77;1.40;;;;;;;;;;4991963;28;20718;-67
2021/06/23 10:42:17;;;;;;;3.07;1.90;;;;;;;;;;4992484;28;20823;-67
2021/06/23 10:44:44;;;;;;;3.00;1.40;;;;;;;;;;4991811;28;20478;-67
2021/06/23 10:47:28;;;;;;;3.60;1.90;;;;;;;;;;4991768;28;20469;-67
2021/06/23 10:49:55;;;;;;;5.93;2.50;;;;;;;;;;4991920;28;20454;-67
2021/06/23 10:52:32;;;;;;;3.97;2.67;;;;;;;;;;4991876;28;20462;-67
2021/06/23 10:54:59;;;;;;;2.07;1.83;;;;;;;;;;4991715;28;20510;-67
2021/06/23 10:57:29;;;;;;;3.10;1.60;;;;;;;;;;4991510;28;20451;-67
2021/06/23 10:59:56;;;;;;;3.07;2.00;;;;;;;;;;4991877;28;20455;-67
2021/06/23 11:02:31;;;;;;;2.70;1.97;;;;;;;;;;4991857;28;20455;-67
2021/06/23 11:05:22;;;;;;;3.03;2.03;;;;;;;;;;4991942;28;20568;-68
2021/06/23 11:07:50;;;;;;;3.60;2.20;;;;;;;;;;4992929;28;20450;-67
2021/06/23 11:10:30;;;;;;;2.90;1.60;;;;;;;;;;4995437;28;20450;-67
2021/06/23 11:12:59;;;;;;;4.13;2.87;;;;;;;;;;4995785;28;20430;-66
2021/06/23 11:15:34;;;;;;;3.53;2.00;;;;;;;;;;4995143;28;20466;-67
2021/06/23 11:18:17;;;;;;;3.07;1.83;;;;;;;;;;4995443;28;20940;-67
2021/06/23 11:20:44;;;;;;;3.27;2.00;;;;;;;;;;4995909;28;20457;-67
2021/06/23 11:23:26;;;;;;;3.33;1.80;;;;;;;;;;4995669;28;20442;-67
2021/06/23 11:25:53;;;;;;;6.20;1.90;;;;;;;;;;5023860;23;20492;-71
2021/06/23 11:28:29;;;;;;;2.33;1.73;;;;;;;;;;5009933;28;20464;-70
2021/06/23 11:31:08;;;;;;;4.00;1.97;;;;;;;;;;5004201;28;20445;-71
2021/06/23 11:33:46;;;;;;;2.67;1.87;;;;;;;;;;5015069;28;20460;-70
2021/06/23 11:36:14;;;;;;;3.30;1.90;;;;;;;;;;5014697;28;20465;-70
2021/06/23 11:38:41;;;;;;;2.03;1.57;;;;;;;;;;5011149;28;20453;-70
2021/06/23 11:41:09;;;;;;;2.07;1.77;;;;;;;;;;4999209;28;20457;-70
2021/06/23 11:43:38;;;;;;;3.73;2.23;;;;;;;;;;5007234;28;20455;-71
2021/06/23 11:46:05;;;;;;;4.00;2.10;;;;;;;;;;5014348;28;20465;-70
2021/06/23 11:48:32;;;;;;;4.57;2.10;;;;;;;;;;5012523;28;20479;-70
2021/06/23 11:50:59;;;;;;;4.63;2.53;;;;;;;;;;5002691;28;20457;-70
2021/06/23 11:53:26;;;;;;;3.10;2.00;;;;;;;;;;5003500;28;20454;-71
2021/06/23 11:55:54;;;;;;;3.93;2.33;;;;;;;;;;5003543;28;20484;-71
2021/06/23 11:58:21;;;;;;;3.73;2.40;;;;;;;;;;5009111;28;20464;-71
2021/06/23 12:00:50;;;;;;;3.50;2.27;;;;;;;;;;5014693;28;20820;-71
2021/06/23 12:03:18;;;;;;;2.60;1.87;;;;;;;;;;5014662;28;20450;-71
2021/06/23 12:05:45;;;;;;;3.20;1.80;;;;;;;;;;5014094;28;20508;-71
2021/06/23 12:08:13;;;;;;;2.63;1.77;;;;;;;;;;5014173;28;20467;-72
2021/06/23 12:10:40;;;;;;;3.10;1.87;;;;;;;;;;5014735;28;20454;-71
2021/06/23 12:13:08;;;;;;;3.07;2.13;;;;;;;;;;5002181;28;20461;-71
2021/06/23 12:15:35;;;;;;;4.70;2.90;;;;;;;;;;4996731;28;20480;-71
2021/06/23 12:18:05;;;;;;;3.97;2.17;;;;;;;;;;5013658;28;20991;-71
2021/06/23 12:20:33;;;;;;;3.00;2.00;;;;;;;;;;5012786;28;20460;-71
2021/06/23 12:23:01;;;;;;;3.47;2.00;;;;;;;;;;5013969;28;20454;-71
2021/06/23 12:25:29;;;;;;;2.73;1.90;;;;;;;;;;5005933;28;20923;-71
2021/06/23 12:27:56;;;;;;;4.13;2.00;;;;;;;;;;4995065;28;20441;-71
2021/06/23 12:30:26;;;;;;;2.83;2.27;;;;;;;;;;4995243;28;21029;-71
2021/06/23 12:32:53;;;;;;;2.60;1.90;;;;;;;;;;5005868;28;20454;-71
2021/06/23 12:35:22;;;;;;;4.00;1.80;;;;;;;;;;5014011;28;20796;-72
2021/06/23 12:37:49;;;;;;;3.60;2.37;;;;;;;;;;5014318;28;20446;-71
2021/06/23 12:40:16;;;;;;;2.97;1.90;;;;;;;;;;5015074;28;20484;-71
2021/06/23 12:42:44;;;;;;;3.53;2.07;;;;;;;;;;5014433;28;20450;-71
2021/06/23 12:45:11;;;;;;;4.23;2.70;;;;;;;;;;4996829;28;20573;-72
2021/06/23 12:47:39;;;;;;;3.43;2.40;;;;;;;;;;5013324;28;20464;-71
2021/06/23 12:50:07;;;;;;;3.70;2.17;;;;;;;;;;5013711;28;20449;-71
2021/06/23 12:52:35;;;;;;;4.30;2.83;;;;;;;;;;5011079;28;20449;-71
2021/06/23 12:55:02;;;;;;;2.73;2.10;;;;;;;;;;5013290;28;20448;-71
2021/06/23 12:57:29;;;;;;;5.00;2.70;;;;;;;;;;5013227;28;20844;-71
2021/06/23 12:59:56;;;;;;;4.30;2.47;;;;;;;;;;5009736;28;20449;-71
2021/06/23 13:02:24;;;;;;;4.47;2.80;;;;;;;;;;5012364;28;20459;-71
2021/06/23 13:04:51;;;;;;;4.70;2.60;;;;;;;;;;4996393;28;20487;-71
2021/06/23 13:07:18;;;;;;;4.13;2.73;;;;;;;;;;5004533;28;20481;-71
2021/06/23 13:09:50;;;;;;;4.73;2.53;;;;;;;;;;5013435;28;20913;-71
2021/06/23 13:12:17;;;;;;;4.33;2.50;;;;;;;;;;5007231;28;20455;-71
2021/06/23 13:14:44;;;;;;;5.00;2.53;;;;;;;;;;5006863;28;20462;-71
2021/06/23 13:17:11;;;;;;;5.80;3.23;;;;;;;;;;5007603;28;20481;-71
2021/06/23 13:19:39;;;;;;;3.60;2.20;;;;;;;;;;5011303;28;20835;-71
2021/06/23 13:22:06;;;;;;;5.20;2.30;;;;;;;;;;5013201;28;20458;-71
2021/06/23 13:24:33;;;;;;;4.17;2.60;;;;;;;;;;5011347;28;20592;-71
2021/06/23 13:27:01;;;;;;;3.33;2.57;;;;;;;;;;5012414;28;20496;-71
2021/06/23 13:29:28;;;;;;;3.40;2.20;;;;;;;;;;5013081;28;20835;-71
2021/06/23 13:31:55;;;;;;;3.37;2.50;;;;;;;;;;4994351;28;20469;-71
2021/06/23 13:34:23;;;;;;;4.57;2.67;;;;;;;;;;4993312;28;20851;-71
2021/06/23 13:36:50;;;;;;;4.00;2.83;;;;;;;;;;5008738;28;20478;-71
2021/06/23 13:39:17;;;;;;;3.53;2.50;;;;;;;;;;4993435;28;20457;-71
2021/06/23 13:41:44;;;;;;;3.10;2.10;;;;;;;;;;5008941;28;20456;-70
2021/06/23 13:44:12;;;;;;;4.07;2.23;;;;;;;;;;5010899;28;20468;-70
2021/06/23 13:46:40;;;;;;;4.03;2.60;;;;;;;;;;5010889;28;20856;-71
2021/06/23 13:49:07;;;;;;;2.80;2.20;;;;;;;;;;5012191;28;20953;-71
2021/06/23 13:51:34;;;;;;;2.67;2.00;;;;;;;;;;5012388;28;20454;-70
2021/06/23 13:54:01;;;;;;;4.03;2.20;;;;;;;;;;5011401;28;20466;-71
2021/06/23 13:56:29;;;;;;;5.73;2.87;;;;;;;;;;5012483;28;20520;-67
2021/06/23 13:58:56;;;;;;;2.83;2.10;;;;;;;;;;5012929;28;20991;-63
2021/06/23 14:01:24;;;;;;;3.50;2.20;;;;;;;;;;5013442;28;20450;-66
2021/06/23 14:03:55;;;;;;;7.10;3.13;;;;;;;;;;5011610;28;20971;-66
2021/06/23 14:06:22;;;;;;;2.83;1.90;;;;;;;;;;5012266;28;20489;-68
2021/06/23 14:08:49;;;;;;;2.17;1.70;;;;;;;;;;5009231;28;20450;-68
2021/06/23 14:11:16;;;;;;;3.83;2.30;;;;;;;;;;5011814;28;20458;-66
2021/06/23 14:13:43;;;;;;;6.03;2.20;;;;;;;;;;5012106;28;20960;-67
2021/06/23 14:16:10;;;;;;;2.87;1.77;;;;;;;;;;5011436;28;20465;-66
2021/06/23 14:18:39;;;;;;;8.77;2.13;;;;;;;;;;5012694;28;20475;-65
2021/06/23 14:21:06;;;;;;;6.57;1.83;;;;;;;;;;5012012;28;20450;-66
2021/06/23 14:23:36;;;;;;;8.47;2.43;;;;;;;;;;5012285;28;20463;-65
2021/06/23 14:26:03;;;;;;;5.90;2.53;;;;;;;;;;5008582;28;20485;-64
2021/06/23 14:28:30;;;;;;;7.00;2.17;;;;;;;;;;5011476;28;20481;-63
2021/06/23 14:30:58;;;;;;;7.60;2.43;;;;;;;;;;5012771;28;20466;-62
2021/06/23 14:33:25;;;;;;;8.83;2.40;;;;;;;;;;5012360;28;20457;-62
2021/06/23 14:35:53;;;;;;;4.20;1.80;;;;;;;;;;5012441;28;20462;-65
2021/06/23 14:38:21;;;;;;;8.10;2.20;;;;;;;;;;5012445;28;20508;-66
2021/06/23 14:40:48;;;;;;;3.40;1.70;;;;;;;;;;5004160;28;21080;-67
2021/06/23 14:43:15;;;;;;;3.77;2.00;;;;;;;;;;5006536;28;20458;-66
2021/06/23 14:45:42;;;;;;;6.43;2.67;;;;;;;;;;5007811;28;20501;-67
2021/06/23 14:48:10;;;;;;;4.13;2.10;;;;;;;;;;5006796;28;20452;-66
2021/06/23 14:50:37;;;;;;;4.83;1.83;;;;;;;;;;5004007;28;20442;-66
2021/06/23 14:53:05;;;;;;;4.00;1.90;;;;;;;;;;5002164;28;20460;-66
2021/06/23 14:55:32;;;;;;;4.97;2.30;;;;;;;;;;5012161;28;20465;-67
2021/06/23 14:58:00;;;;;;;2.80;1.70;;;;;;;;;;5011464;28;20449;-66
2021/06/23 15:00:27;;;;;;;2.70;1.70;;;;;;;;;;5011815;28;20485;-65
2021/06/23 15:02:55;;;;;;;5.50;1.43;;;;;;;;;;5011265;28;20449;-66